Time;durP1;ratioP1;P1;durP2;ratioP2;P2;SDS_P1;SDS_P2;PMS_P1;PMS_P2;Temp;Humidity;BMP_temperature;BMP_pressure;BME280_temperature;BME280_humidity;BME280_pressure;Samples;Min_cycle;Max_cycle;Signal;HPM_P1;HPM_P2
2022/11/17 00:02:53;;;;;;;5.80;5.30;;;10.10;47.00;;;;;;10384956;28;20245;-69
2022/11/17 00:07:56;;;;;;;6.17;5.67;;;10.10;46.90;;;;;;10384192;28;20326;-69
2022/11/17 00:23:48;;;;;;;13.13;6.47;;;10.00;47.00;;;;;;10377784;28;20922;-69
2022/11/17 00:28:56;;;;;;;8.93;5.60;;;10.00;47.30;;;;;;10382224;28;20240;-69
2022/11/17 00:34:06;;;;;;;8.57;5.97;;;9.90;48.50;;;;;;10383142;28;20232;-71
2022/11/17 00:39:10;;;;;;;9.70;5.43;;;9.90;48.20;;;;;;10383704;28;20249;-71
2022/11/17 00:44:15;;;;;;;13.43;5.67;;;9.90;48.20;;;;;;10385468;28;20304;-71
2022/11/17 00:49:20;;;;;;;13.47;5.80;;;9.80;49.10;;;;;;10377477;28;20482;-71
2022/11/17 00:54:23;;;;;;;6.83;5.93;;;9.80;48.40;;;;;;10382854;28;20261;-71
2022/11/17 00:59:28;;;;;;;5.30;4.90;;;9.90;48.70;;;;;;10383296;28;20750;-72
2022/11/17 01:04:31;;;;;;;5.93;5.47;;;9.90;48.80;;;;;;10387685;28;20237;-71
2022/11/17 01:09:34;;;;;;;5.43;4.93;;;9.90;48.70;;;;;;10387913;28;20249;-75
2022/11/17 01:14:38;;;;;;;6.90;6.20;;;9.90;48.70;;;;;;10381290;28;20295;-75
2022/11/17 01:19:42;;;;;;;7.67;5.77;;;10.00;48.00;;;;;;10383057;28;20259;-74
2022/11/17 01:24:45;;;;;;;9.57;6.90;;;10.00;47.80;;;;;;10382965;28;20237;-75
2022/11/17 01:29:49;;;;;;;12.97;6.43;;;10.00;47.70;;;;;;10381892;28;20697;-71
2022/11/17 01:34:52;;;;;;;6.87;6.30;;;10.10;47.90;;;;;;10382745;28;20236;-71
2022/11/17 01:39:56;;;;;;;5.87;5.47;;;10.10;47.90;;;;;;10382235;28;20793;-71
2022/11/17 01:45:05;;;;;;;6.20;5.73;;;10.10;48.10;;;;;;10381325;28;20233;-72
2022/11/17 01:50:20;;;;;;;7.10;6.50;;;10.10;48.60;;;;;;10351382;28;20230;-72
2022/11/17 01:55:24;;;;;;;7.50;6.90;;;10.20;48.60;;;;;;10341861;28;20238;-72
2022/11/17 02:00:29;;;;;;;6.97;6.47;;;10.30;48.20;;;;;;10340166;28;20239;-72
2022/11/17 02:05:43;;;;;;;6.97;6.47;;;10.30;48.20;;;;;;10342312;28;20230;-72
2022/11/17 02:10:47;;;;;;;6.77;6.27;;;10.30;48.30;;;;;;10347446;28;20231;-72
2022/11/17 02:15:55;;;;;;;7.07;6.47;;;10.30;47.70;;;;;;10339911;28;20248;-72
2022/11/17 02:21:21;;;;;;;5.83;5.37;;;10.30;47.80;;;;;;10341140;28;22466;-72
2022/11/17 02:26:57;;;;;;;6.80;6.30;;;10.30;48.20;;;;;;10336777;28;20230;-72
2022/11/17 02:32:07;;;;;;;6.27;5.77;;;10.30;48.10;;;;;;10322012;28;20218;-72
2022/11/17 02:37:20;;;;;;;6.73;6.23;;;10.30;47.80;;;;;;10375510;28;20222;-72
2022/11/17 02:47:48;;;;;;;7.70;7.00;;;10.20;47.70;;;;;;10381274;28;20230;-74
2022/11/17 02:52:51;;;;;;;6.73;6.03;;;10.20;47.70;;;;;;10382267;28;20225;-71
2022/11/17 02:57:54;;;;;;;6.70;6.20;;;10.20;47.50;;;;;;10376369;28;20229;-75
2022/11/17 03:03:24;;;;;;;7.07;6.57;;;10.10;47.60;;;;;;10377882;28;20245;-75
2022/11/17 03:08:40;;;;;;;7.00;6.40;;;10.10;48.20;;;;;;10378974;28;20749;-74
2022/11/17 03:13:49;;;;;;;6.03;5.60;;;10.10;48.10;;;;;;10382313;28;20285;-72
2022/11/17 03:19:04;;;;;;;6.20;5.80;;;10.20;48.30;;;;;;10379261;28;20225;-74
2022/11/17 03:24:13;;;;;;;6.43;5.93;;;10.20;48.40;;;;;;10383090;28;20276;-74
2022/11/17 03:29:20;;;;;;;5.40;5.00;;;10.20;48.20;;;;;;10388072;28;20226;-74
2022/11/17 03:34:27;;;;;;;7.17;6.57;;;10.30;48.20;;;;;;10383492;28;20643;-74
2022/11/17 03:39:33;;;;;;;6.47;6.00;;;10.30;48.10;;;;;;10383356;28;20783;-74
2022/11/17 03:44:39;;;;;;;6.13;5.73;;;10.40;48.10;;;;;;10384388;28;20230;-74
2022/11/17 03:49:49;;;;;;;6.57;6.07;;;10.40;48.10;;;;;;10388424;28;21276;-75
2022/11/17 03:54:53;;;;;;;5.83;5.43;;;10.40;48.00;;;;;;10392922;28;20237;-71
2022/11/17 04:00:00;;;;;;;6.30;5.80;;;10.50;47.80;;;;;;10380718;28;20226;-69
2022/11/17 04:05:05;;;;;;;7.27;6.67;;;10.40;47.60;;;;;;10389193;28;20961;-69
2022/11/17 04:10:10;;;;;;;6.97;6.47;;;10.50;47.70;;;;;;10386548;28;20229;-69
2022/11/17 04:20:35;;;;;;;6.57;6.07;;;10.40;47.70;;;;;;10384894;28;20236;-71
2022/11/17 04:31:01;;;;;;;7.13;6.53;;;10.40;48.00;;;;;;10382490;28;20229;-75
2022/11/17 04:36:06;;;;;;;8.10;7.50;;;10.40;47.90;;;;;;10352222;28;20226;-74
2022/11/17 04:46:30;;;;;;;7.53;7.00;;;10.50;48.00;;;;;;10335651;28;20230;-74
2022/11/17 04:51:36;;;;;;;7.40;6.80;;;10.40;47.90;;;;;;10340504;28;20658;-71
2022/11/17 04:56:39;;;;;;;8.00;7.33;;;10.40;48.00;;;;;;10340256;28;20226;-69
2022/11/17 05:01:42;;;;;;;8.50;7.83;;;10.40;47.80;;;;;;10339083;28;20280;-69
2022/11/17 05:06:47;;;;;;;7.80;7.20;;;10.40;47.80;;;;;;10345172;28;20565;-69
2022/11/17 05:17:11;;;;;;;8.27;7.63;;;10.30;47.90;;;;;;10373661;28;20233;-71
2022/11/17 05:27:38;;;;;;;7.17;6.67;;;10.30;48.10;;;;;;10384721;28;20288;-68
2022/11/17 05:32:41;;;;;;;7.87;7.27;;;10.30;48.10;;;;;;10374719;28;20264;-73
2022/11/17 05:37:45;;;;;;;7.67;6.97;;;10.30;47.90;;;;;;10380795;28;20230;-74
2022/11/17 05:42:48;;;;;;;8.13;7.43;;;10.30;48.10;;;;;;10376357;28;20231;-71
2022/11/17 05:47:58;;;;;;;8.13;7.43;;;10.30;48.10;;;;;;10378471;28;20644;-74
2022/11/17 05:53:03;;;;;;;7.50;6.90;;;10.20;48.10;;;;;;10381642;28;20678;-71
2022/11/17 05:58:11;;;;;;;8.67;7.97;;;10.20;48.30;;;;;;10379063;28;20229;-69
2022/11/17 06:03:18;;;;;;;9.03;8.33;;;10.10;48.50;;;;;;10382907;28;20226;-71
2022/11/17 06:08:23;;;;;;;8.33;7.63;;;10.10;48.50;;;;;;10375884;28;20241;-71
2022/11/17 06:13:27;;;;;;;7.50;6.90;;;10.20;48.70;;;;;;10377190;28;20272;-71
2022/11/17 06:18:34;;;;;;;8.40;7.70;;;10.20;48.50;;;;;;10378925;28;20237;-72
2022/11/17 06:23:39;;;;;;;8.00;7.40;;;10.20;48.50;;;;;;10377049;28;20238;-68
2022/11/17 06:28:44;;;;;;;8.53;7.83;;;10.20;48.70;;;;;;10379409;28;20240;-71
2022/11/17 06:33:48;;;;;;;8.10;7.50;;;10.20;48.70;;;;;;10372717;28;20242;-71
2022/11/17 06:38:52;;;;;;;7.70;7.10;;;10.20;48.60;;;;;;10381108;28;20230;-71
2022/11/17 06:43:55;;;;;;;6.67;6.17;;;10.20;48.80;;;;;;10382462;28;20229;-74
2022/11/17 06:48:59;;;;;;;7.70;7.10;;;10.30;48.60;;;;;;10384674;28;20225;-75
2022/11/17 06:54:06;;;;;;;7.80;7.20;;;10.30;48.60;;;;;;10381112;28;20226;-71
2022/11/17 06:59:09;;;;;;;7.50;6.90;;;10.30;48.90;;;;;;10377089;28;20730;-69
2022/11/17 07:04:12;;;;;;;7.63;7.03;;;10.40;48.70;;;;;;10379607;28;20245;-69
2022/11/17 07:09:17;;;;;;;7.50;6.90;;;10.40;48.60;;;;;;10383635;28;20303;-69
2022/11/17 07:14:20;;;;;;;8.33;7.53;;;10.40;48.80;;;;;;10379507;28;20230;-69
2022/11/17 07:19:23;;;;;;;7.43;6.73;;;10.50;48.70;;;;;;10378322;28;20226;-69
2022/11/17 07:24:28;;;;;;;7.70;7.10;;;10.50;48.70;;;;;;10378411;28;20329;-69
2022/11/17 07:29:31;;;;;;;8.70;7.93;;;10.50;48.90;;;;;;10378542;28;20248;-69
2022/11/17 07:34:34;;;;;;;8.40;7.70;;;10.60;48.60;;;;;;10377702;28;20330;-71
2022/11/17 07:39:39;;;;;;;8.37;7.67;;;10.60;48.70;;;;;;10381131;28;21941;-71
2022/11/17 07:44:42;;;;;;;7.23;6.67;;;10.60;48.80;;;;;;10376737;28;20260;-76
2022/11/17 07:49:45;;;;;;;7.03;6.53;;;10.60;48.60;;;;;;10379123;28;20597;-77
2022/11/17 07:54:50;;;;;;;6.77;6.27;;;10.50;48.50;;;;;;10383914;28;20236;-77
2022/11/17 07:59:53;;;;;;;6.27;5.77;;;10.50;48.90;;;;;;10377169;28;20237;-77
2022/11/17 08:04:56;;;;;;;6.00;5.50;;;10.40;48.90;;;;;;10386762;28;20236;-77
2022/11/17 08:10:00;;;;;;;6.23;5.67;;;10.50;49.50;;;;;;10389468;28;20317;-77
2022/11/17 08:15:04;;;;;;;9.23;8.37;;;10.50;49.40;;;;;;10391053;28;20276;-76
2022/11/17 08:20:08;;;;;;;8.30;7.63;;;10.50;49.20;;;;;;10385416;28;20226;-76
2022/11/17 08:25:13;;;;;;;6.83;6.33;;;10.60;49.40;;;;;;10385513;28;20226;-69
2022/11/17 08:30:17;;;;;;;5.60;5.20;;;10.50;49.50;;;;;;10380602;28;20234;-69
2022/11/17 08:35:22;;;;;;;5.40;5.00;;;10.50;49.40;;;;;;10380689;28;20320;-69
2022/11/17 08:40:27;;;;;;;4.70;4.40;;;10.60;49.80;;;;;;10383257;28;20746;-70
2022/11/17 08:45:33;;;;;;;5.03;4.60;;;10.60;50.10;;;;;;10381095;28;20733;-70
2022/11/17 08:50:36;;;;;;;5.00;4.60;;;10.60;50.20;;;;;;10376189;28;20232;-70
2022/11/17 08:55:40;;;;;;;4.63;4.23;;;10.70;49.80;;;;;;10387396;28;20245;-69
2022/11/17 09:00:45;;;;;;;4.30;4.00;;;10.80;50.10;;;;;;10387669;28;20237;-69
2022/11/17 09:05:49;;;;;;;4.70;4.33;;;10.80;50.00;;;;;;10382587;28;20913;-69
2022/11/17 09:10:55;;;;;;;4.40;4.00;;;10.90;50.20;;;;;;10387440;28;20601;-69
2022/11/17 09:16:01;;;;;;;3.90;3.60;;;10.90;50.60;;;;;;10380359;28;20230;-69
2022/11/17 09:21:06;;;;;;;4.07;3.77;;;11.00;50.60;;;;;;10392524;28;20275;-70
2022/11/17 09:26:12;;;;;;;4.50;4.10;;;11.10;50.40;;;;;;10394609;28;20339;-70
2022/11/17 09:31:17;;;;;;;4.10;3.80;;;11.10;50.50;;;;;;10394462;28;20887;-69
2022/11/17 09:36:21;;;;;;;3.80;3.50;;;11.20;50.30;;;;;;10387556;28;20857;-71
2022/11/17 09:41:28;;;;;;;4.00;3.70;;;11.20;50.40;;;;;;10392067;28;21335;-71
2022/11/17 09:46:39;;;;;;;4.23;3.47;;;11.30;50.90;;;;;;10381169;28;20225;-70
2022/11/17 09:51:47;;;;;;;3.27;3.00;;;11.40;50.80;;;;;;10389498;28;20234;-71
2022/11/17 09:56:54;;;;;;;4.20;3.90;;;11.40;50.90;;;;;;10387039;28;20789;-70
2022/11/17 10:01:58;;;;;;;4.07;3.73;;;11.50;51.10;;;;;;10388718;28;20226;-71
2022/11/17 10:07:02;;;;;;;3.60;3.30;;;11.50;50.90;;;;;;10389462;28;20340;-71
2022/11/17 10:12:16;;;;;;;3.60;3.30;;;11.60;50.80;;;;;;10389885;28;20224;-71
2022/11/17 10:17:19;;;;;;;4.70;3.73;;;11.60;51.30;;;;;;10387593;28;20222;-71
2022/11/17 10:22:34;;;;;;;3.83;3.33;;;11.70;50.90;;;;;;10388412;28;20234;-71
2022/11/17 10:27:51;;;;;;;4.37;3.97;;;11.80;51.60;;;;;;10382505;28;20233;-71
2022/11/17 10:32:56;;;;;;;5.70;3.57;;;11.90;51.30;;;;;;10370408;28;20228;-71
2022/11/17 10:38:02;;;;;;;3.53;3.27;;;12.00;50.80;;;;;;10374063;28;20226;-71
2022/11/17 10:43:22;;;;;;;3.30;3.00;;;12.10;50.80;;;;;;10371311;28;20605;-71
2022/11/17 10:48:29;;;;;;;3.20;3.00;;;12.10;51.30;;;;;;10375484;28;20229;-71
2022/11/17 10:53:36;;;;;;;3.40;3.00;;;12.20;51.00;;;;;;10373861;28;20730;-71
2022/11/17 10:59:01;;;;;;;3.97;3.30;;;12.20;50.90;;;;;;10377480;28;20221;-71
2022/11/17 11:04:07;;;;;;;5.00;4.57;;;12.20;51.00;;;;;;10373983;28;20775;-71
2022/11/17 11:09:15;;;;;;;3.70;3.40;;;12.20;50.70;;;;;;10376036;28;20232;-71
2022/11/17 11:14:28;;;;;;;4.67;4.27;;;12.20;50.90;;;;;;10375879;28;20214;-71
2022/11/17 11:19:31;;;;;;;4.07;3.77;;;12.20;51.40;;;;;;10375394;28;20226;-71
2022/11/17 11:24:42;;;;;;;2.80;2.60;;;12.20;50.90;;;;;;10376804;28;20784;-71
2022/11/17 11:30:00;;;;;;;2.57;2.37;;;12.30;51.60;;;;;;10376539;28;20232;-71
2022/11/17 11:35:30;;;;;;;2.20;2.00;;;12.40;52.20;;;;;;10374900;28;20224;-75
2022/11/17 11:40:38;;;;;;;4.40;4.00;;;12.40;52.90;;;;;;10384529;28;20237;-76
2022/11/17 11:45:49;;;;;;;5.83;5.27;;;12.70;52.60;;;;;;10386889;28;20229;-76
2022/11/17 11:50:56;;;;;;;3.50;3.20;;;12.80;52.70;;;;;;10382811;28;20639;-76
2022/11/17 11:56:14;;;;;;;3.20;2.60;;;13.00;52.50;;;;;;10380678;28;20230;-76
2022/11/17 12:01:21;;;;;;;2.47;2.27;;;13.10;52.20;;;;;;10383690;28;20214;-69
2022/11/17 12:06:42;;;;;;;3.40;3.00;;;13.20;52.30;;;;;;10382902;28;20237;-76
2022/11/17 12:12:00;;;;;;;7.43;4.33;;;13.30;52.30;;;;;;10389359;28;20937;-70
2022/11/17 12:17:16;;;;;;;3.80;3.50;;;13.50;52.20;;;;;;10385518;28;20808;-70
2022/11/17 12:22:42;;;;;;;4.87;3.27;;;13.50;52.20;;;;;;10379765;28;20346;-71
2022/11/17 12:27:47;;;;;;;2.40;2.20;;;13.60;52.50;;;;;;10376582;28;20271;-71
2022/11/17 12:32:55;;;;;;;2.50;2.30;;;13.70;52.20;;;;;;10376079;28;20227;-71
2022/11/17 12:38:35;;;;;;;2.40;2.20;;;13.90;52.20;;;;;;10380455;28;20234;-70
2022/11/17 12:43:38;;;;;;;2.70;1.93;;;14.00;51.40;;;;;;10381442;28;20728;-71
2022/11/17 12:48:53;;;;;;;3.33;2.30;;;14.10;51.60;;;;;;10389672;28;20253;-72
2022/11/17 12:54:05;;;;;;;2.40;1.73;;;14.10;51.20;;;;;;10385617;28;20233;-72
2022/11/17 12:59:40;;;;;;;2.20;1.80;;;14.20;51.40;;;;;;10381994;28;20225;-73
2022/11/17 13:04:49;;;;;;;2.10;1.90;;;14.30;51.30;;;;;;10384924;28;20229;-72
2022/11/17 13:09:55;;;;;;;1.90;1.70;;;14.40;51.30;;;;;;10388470;28;20229;-72
2022/11/17 13:15:01;;;;;;;1.83;1.70;;;14.50;51.10;;;;;;10384303;28;20640;-72
2022/11/17 13:20:23;;;;;;;2.10;1.90;;;14.60;50.80;;;;;;10379847;28;20935;-71
2022/11/17 13:25:26;;;;;;;2.80;1.80;;;14.70;50.60;;;;;;10383577;28;20644;-71
2022/11/17 13:30:31;;;;;;;4.00;2.70;;;14.70;50.40;;;;;;10385026;28;20249;-71
2022/11/17 13:35:36;;;;;;;1.53;1.30;;;14.80;50.10;;;;;;10384637;28;20230;-71
2022/11/17 13:40:42;;;;;;;1.77;1.10;;;14.80;49.10;;;;;;10383330;28;20241;-71
2022/11/17 13:45:46;;;;;;;2.17;1.30;;;14.80;48.70;;;;;;10383911;28;20598;-71
2022/11/17 13:50:50;;;;;;;0.87;0.80;;;14.90;49.10;;;;;;10383482;28;20269;-71
2022/11/17 13:55:53;;;;;;;2.43;1.00;;;14.90;48.30;;;;;;10374606;28;20226;-76
2022/11/17 14:00:58;;;;;;;1.07;0.97;;;15.00;48.20;;;;;;10381757;28;20234;-77
2022/11/17 14:06:05;;;;;;;3.17;1.33;;;15.10;47.70;;;;;;10383117;28;20306;-71
2022/11/17 14:11:19;;;;;;;4.87;2.17;;;15.10;47.20;;;;;;10379219;28;20230;-71
2022/11/17 14:16:26;;;;;;;3.73;2.17;;;15.20;46.60;;;;;;10377711;28;20316;-71
2022/11/17 14:21:32;;;;;;;3.17;1.87;;;15.20;46.80;;;;;;10377224;28;20256;-72
2022/11/17 14:26:43;;;;;;;3.07;1.60;;;15.20;46.40;;;;;;10379083;28;20233;-72
2022/11/17 14:31:46;;;;;;;2.23;1.40;;;15.20;45.30;;;;;;10381973;28;20233;-72
2022/11/17 14:36:54;;;;;;;3.50;1.40;;;15.20;46.70;;;;;;10375658;28;20757;-70
2022/11/17 14:41:57;;;;;;;2.67;1.40;;;15.20;45.90;;;;;;10380696;28;20241;-70
2022/11/17 14:47:00;;;;;;;4.77;2.10;;;15.10;46.80;;;;;;10378483;28;20233;-70
2022/11/17 14:52:05;;;;;;;2.83;1.83;;;15.10;46.80;;;;;;10375906;28;20218;-71
2022/11/17 14:57:08;;;;;;;4.17;2.47;;;15.10;46.00;;;;;;10376515;28;20654;-71
2022/11/17 15:02:12;;;;;;;3.63;2.60;;;15.10;46.40;;;;;;10372619;28;20595;-71
2022/11/17 15:07:16;;;;;;;5.60;3.60;;;15.10;46.10;;;;;;10377641;28;20226;-71
2022/11/17 15:12:20;;;;;;;3.33;2.73;;;15.00;45.80;;;;;;10381085;28;20242;-70
2022/11/17 15:17:24;;;;;;;3.80;2.60;;;15.00;47.00;;;;;;10373058;28;20244;-73
2022/11/17 15:22:28;;;;;;;9.50;5.57;;;15.00;46.20;;;;;;10375529;28;20234;-71
2022/11/17 15:27:31;;;;;;;5.23;3.60;;;14.90;45.90;;;;;;10367174;28;20242;-71
2022/11/17 15:32:36;;;;;;;7.83;5.80;;;14.80;46.10;;;;;;10376748;28;20239;-69
2022/11/17 15:37:40;;;;;;;6.43;5.60;;;14.80;46.10;;;;;;10371477;28;20242;-71
2022/11/17 15:42:43;;;;;;;5.27;4.57;;;14.70;45.70;;;;;;10377588;28;20230;-72
2022/11/17 15:47:46;;;;;;;5.93;5.23;;;14.70;46.00;;;;;;10376537;28;20701;-71
2022/11/17 15:52:51;;;;;;;8.37;5.07;;;14.60;45.90;;;;;;10377852;28;20710;-69
2022/11/17 15:58:10;;;;;;;5.07;4.40;;;14.40;45.60;;;;;;10379055;28;20233;-73
2022/11/17 16:03:13;;;;;;;9.90;8.87;;;14.40;45.90;;;;;;10388305;28;20611;-69
2022/11/17 16:08:18;;;;;;;10.70;9.17;;;14.30;45.90;;;;;;10385138;28;20226;-70
2022/11/17 16:13:21;;;;;;;21.17;14.97;;;14.20;45.80;;;;;;10380612;28;20887;-70
2022/11/17 16:18:24;;;;;;;40.40;26.10;;;14.10;45.80;;;;;;10380197;28;20284;-72
2022/11/17 16:23:29;;;;;;;36.90;24.60;;;14.10;45.90;;;;;;10379326;28;20238;-69
2022/11/17 16:28:32;;;;;;;30.93;22.10;;;14.00;46.70;;;;;;10386141;28;20658;-77
2022/11/17 16:33:35;;;;;;;20.87;17.93;;;14.00;46.20;;;;;;10390563;28;20221;-77
2022/11/17 16:38:40;;;;;;;13.23;11.93;;;13.90;45.70;;;;;;10379081;28;20229;-76
2022/11/17 16:44:03;;;;;;;14.60;13.20;;;13.80;45.70;;;;;;10378655;28;20266;-71
2022/11/17 16:49:09;;;;;;;24.70;20.63;;;13.60;45.80;;;;;;10376912;28;20881;-71
2022/11/17 16:54:13;;;;;;;12.90;11.60;;;13.50;45.50;;;;;;10375803;28;20241;-71
2022/11/17 16:59:17;;;;;;;10.77;9.77;;;13.40;45.60;;;;;;10379743;28;20602;-71
2022/11/17 17:04:20;;;;;;;8.20;7.40;;;13.40;45.80;;;;;;10381209;28;20230;-69
2022/11/17 17:09:25;;;;;;;8.27;7.40;;;13.30;45.70;;;;;;10379580;28;20241;-69
2022/11/17 17:14:30;;;;;;;9.90;7.93;;;13.30;45.50;;;;;;10382477;28;20973;-69
2022/11/17 17:19:33;;;;;;;10.60;9.53;;;13.20;45.70;;;;;;10381846;28;20229;-75
2022/11/17 17:24:37;;;;;;;10.27;9.27;;;13.10;45.80;;;;;;10379933;28;20230;-71
2022/11/17 17:29:41;;;;;;;10.03;9.13;;;13.10;45.70;;;;;;10381896;28;20639;-71
2022/11/17 17:34:44;;;;;;;10.43;9.03;;;13.00;45.80;;;;;;10383445;28;20723;-71
2022/11/17 17:39:48;;;;;;;16.03;13.40;;;13.00;45.70;;;;;;10382870;28;20641;-70
2022/11/17 17:44:51;;;;;;;11.83;10.37;;;12.90;45.60;;;;;;10383729;28;20233;-75
2022/11/17 17:49:55;;;;;;;10.90;9.40;;;12.80;45.90;;;;;;10380190;28;20237;-69
2022/11/17 17:55:00;;;;;;;9.17;7.93;;;12.80;46.20;;;;;;10373819;28;20252;-69
2022/11/17 18:00:05;;;;;;;7.60;6.87;;;12.70;46.20;;;;;;10379321;28;20233;-68
2022/11/17 18:05:08;;;;;;;5.23;4.73;;;12.70;46.20;;;;;;10379391;28;20741;-69
2022/11/17 18:10:13;;;;;;;6.20;5.60;;;12.70;46.00;;;;;;10383439;28;20230;-69
2022/11/17 18:15:17;;;;;;;6.43;5.83;;;12.70;45.90;;;;;;10375654;28;20222;-69
2022/11/17 18:20:20;;;;;;;9.47;6.67;;;12.60;45.90;;;;;;10377630;28;20229;-75
2022/11/17 18:25:24;;;;;;;10.33;8.83;;;12.60;45.90;;;;;;10376598;28;20229;-75
2022/11/17 18:30:28;;;;;;;11.30;9.63;;;12.50;46.10;;;;;;10376622;28;20226;-69
2022/11/17 18:35:31;;;;;;;10.47;9.40;;;12.50;46.30;;;;;;10373745;28;20245;-68
2022/11/17 18:40:36;;;;;;;11.00;9.77;;;12.50;46.40;;;;;;10380586;28;20229;-68
2022/11/17 18:45:39;;;;;;;12.40;11.03;;;12.50;46.50;;;;;;10388363;28;20234;-68
2022/11/17 18:50:44;;;;;;;15.03;11.63;;;12.50;46.40;;;;;;10378356;28;20233;-67
2022/11/17 18:56:10;;;;;;;14.30;12.13;;;12.40;46.20;;;;;;10378955;28;20234;-77
2022/11/17 19:01:17;;;;;;;12.47;11.20;;;12.30;46.50;;;;;;10385185;28;20667;-71
2022/11/17 19:06:22;;;;;;;14.93;12.10;;;12.30;46.70;;;;;;10373996;28;20766;-71
2022/11/17 19:11:29;;;;;;;8.47;7.63;;;12.30;47.10;;;;;;10382200;28;20230;-71
2022/11/17 19:16:35;;;;;;;8.37;6.60;;;12.30;47.50;;;;;;10381138;28;20238;-76
2022/11/17 19:21:45;;;;;;;9.50;7.37;;;12.30;47.40;;;;;;10389394;28;20257;-77
2022/11/17 19:26:50;;;;;;;8.80;7.63;;;12.30;46.90;;;;;;10392239;28;20225;-77
2022/11/17 19:31:53;;;;;;;10.80;9.70;;;12.30;47.00;;;;;;10387011;28;20609;-77
2022/11/17 19:36:56;;;;;;;8.00;7.20;;;12.30;46.90;;;;;;10386419;28;20238;-71
2022/11/17 19:42:01;;;;;;;9.67;7.43;;;12.20;47.00;;;;;;10373165;28;20237;-71
2022/11/17 19:47:04;;;;;;;7.27;6.67;;;12.20;47.20;;;;;;10372949;28;20213;-75
2022/11/17 19:52:07;;;;;;;7.30;6.50;;;12.20;47.30;;;;;;10373338;28;20224;-74
2022/11/17 19:57:13;;;;;;;6.47;5.83;;;12.20;47.30;;;;;;10370667;28;20222;-75
2022/11/17 20:02:16;;;;;;;5.90;5.30;;;12.20;47.70;;;;;;10373160;28;20765;-68
2022/11/17 20:07:20;;;;;;;7.37;6.10;;;12.30;47.60;;;;;;10377505;28;20228;-68
2022/11/17 20:12:25;;;;;;;6.27;5.60;;;12.30;47.50;;;;;;10390678;28;20225;-68
2022/11/17 20:17:28;;;;;;;7.00;5.50;;;12.20;47.70;;;;;;10381823;28;20229;-71
2022/11/17 20:22:31;;;;;;;6.90;5.93;;;12.20;47.70;;;;;;10382780;28;20230;-71
2022/11/17 20:27:36;;;;;;;6.63;5.57;;;12.20;47.80;;;;;;10397058;28;20238;-71
2022/11/17 20:32:39;;;;;;;7.67;5.27;;;12.10;48.00;;;;;;10376965;28;20312;-71
2022/11/17 20:37:42;;;;;;;9.23;6.20;;;12.20;47.90;;;;;;10372224;28;20226;-71
2022/11/17 20:42:47;;;;;;;6.13;5.53;;;12.20;47.80;;;;;;10372147;28;20280;-70
2022/11/17 20:47:50;;;;;;;5.80;5.27;;;12.20;48.20;;;;;;10376198;28;20229;-70
2022/11/17 20:52:53;;;;;;;5.97;5.33;;;12.20;48.10;;;;;;10373994;28;20687;-68
2022/11/17 20:57:58;;;;;;;5.57;4.97;;;12.20;48.20;;;;;;10374644;28;20717;-68
2022/11/17 21:03:01;;;;;;;4.70;4.20;;;12.20;48.40;;;;;;10374389;28;20240;-71
2022/11/17 21:08:04;;;;;;;6.10;4.37;;;12.20;48.30;;;;;;10369119;28;20226;-72
2022/11/17 21:13:09;;;;;;;6.13;4.70;;;12.20;48.40;;;;;;10380624;28;20225;-76
2022/11/17 21:18:24;;;;;;;6.33;4.90;;;12.20;48.60;;;;;;10379975;28;20222;-71
2022/11/17 21:23:31;;;;;;;10.37;6.73;;;12.20;49.30;;;;;;10379448;28;20622;-76
2022/11/17 21:28:36;;;;;;;4.80;4.00;;;12.30;48.60;;;;;;10384961;28;20253;-68
2022/11/17 21:33:40;;;;;;;4.07;2.43;;;12.30;48.60;;;;;;10377986;28;20238;-77
2022/11/17 21:38:44;;;;;;;4.43;1.80;;;12.40;48.00;;;;;;10384025;28;20222;-76
2022/11/17 21:43:50;;;;;;;3.00;1.97;;;12.40;48.20;;;;;;10383303;28;20241;-76
2022/11/17 21:48:55;;;;;;;3.53;1.97;;;12.40;48.10;;;;;;10374595;28;20237;-71
2022/11/17 21:54:00;;;;;;;2.13;1.90;;;12.60;48.20;;;;;;10375626;28;20611;-69
2022/11/17 21:59:07;;;;;;;2.67;1.70;;;12.70;48.20;;;;;;10377506;28;20229;-71
2022/11/17 22:04:11;;;;;;;1.73;1.43;;;12.70;47.60;;;;;;10376738;28;20287;-72
2022/11/17 22:09:15;;;;;;;3.77;2.70;;;12.80;47.70;;;;;;10382858;28;20227;-72
2022/11/17 22:14:20;;;;;;;3.93;3.03;;;12.90;47.70;;;;;;10377820;28;20229;-69
2022/11/17 22:19:27;;;;;;;3.87;3.10;;;12.90;47.60;;;;;;10381920;28;20217;-72
2022/11/17 22:24:30;;;;;;;3.13;2.80;;;12.90;47.60;;;;;;10375662;28;20702;-72
2022/11/17 22:29:35;;;;;;;2.20;2.00;;;12.90;47.70;;;;;;10380330;28;20230;-72
2022/11/17 22:34:38;;;;;;;1.03;1.03;;;12.90;47.50;;;;;;10378935;28;20226;-69
2022/11/17 22:39:41;;;;;;;1.90;1.03;;;12.90;47.50;;;;;;10377661;28;20230;-69
2022/11/17 22:44:45;;;;;;;2.40;1.20;;;13.00;47.60;;;;;;10378508;28;20245;-76
2022/11/17 22:49:49;;;;;;;1.50;1.37;;;13.00;47.90;;;;;;10375903;28;20240;-76
2022/11/17 22:54:52;;;;;;;1.20;1.10;;;13.10;47.50;;;;;;10379343;28;20740;-76
2022/11/17 22:59:56;;;;;;;3.83;1.60;;;13.00;47.40;;;;;;10381086;28;20222;-69
2022/11/17 23:04:59;;;;;;;2.80;2.00;;;13.00;47.30;;;;;;10376168;28;20896;-71
2022/11/17 23:10:03;;;;;;;3.00;2.40;;;13.00;47.40;;;;;;10378293;28;20265;-71
2022/11/17 23:15:08;;;;;;;3.97;2.50;;;13.00;47.20;;;;;;10376252;28;20406;-69
2022/11/17 23:20:12;;;;;;;3.13;2.40;;;13.00;47.20;;;;;;10378339;28;20629;-72
2022/11/17 23:25:15;;;;;;;3.30;2.27;;;13.00;47.20;;;;;;10373184;28;20272;-71
2022/11/17 23:30:20;;;;;;;3.53;2.63;;;13.00;47.20;;;;;;10377816;28;20228;-76
2022/11/17 23:35:23;;;;;;;3.73;2.30;;;12.90;46.90;;;;;;10377997;28;20998;-71
2022/11/17 23:40:26;;;;;;;2.10;1.97;;;13.00;47.10;;;;;;10386172;28;20237;-71
2022/11/17 23:45:31;;;;;;;4.37;3.93;;;12.90;47.10;;;;;;10388507;28;20234;-69
2022/11/17 23:50:36;;;;;;;3.80;1.90;;;12.90;47.30;;;;;;10382395;28;20233;-71
2022/11/17 23:55:40;;;;;;;1.73;1.57;;;12.90;47.30;;;;;;10387313;28;20883;-77
